sensor_id;sensor_type;location;lat;lon;timestamp;pressure;altitude;pressure_sealevel;temperature;humidity
53699;BME280;39591;53.952;27.612;2023-03-04T00:03:55;998.5;;;2.4;67.4
53699;BME280;39591;53.952;27.612;2023-03-04T00:08:21;998.3;;;2.3;67.1
53699;BME280;39591;53.952;27.612;2023-03-04T00:13:59;998.2;;;2.3;67.3
53699;BME280;39591;53.952;27.612;2023-03-04T00:18:55;998.1;;;2.3;67.5
53699;BME280;39591;53.952;27.612;2023-03-04T00:24:09;997.9;;;2.3;67.4
53699;BME280;39591;53.952;27.612;2023-03-04T00:28:55;997.7;;;2.4;67.6
53699;BME280;39591;53.952;27.612;2023-03-04T00:33:45;997.6;;;2.4;70.1
53699;BME280;39591;53.952;27.612;2023-03-04T00:38:45;997.5;;;2.3;70.3
53699;BME280;39591;53.952;27.612;2023-03-04T00:43:55;997.4;;;2.3;69.9
53699;BME280;39591;53.952;27.612;2023-03-04T00:49:09;997.3;;;2.3;69.5
53699;BME280;39591;53.952;27.612;2023-03-04T00:53:55;997.2;;;2.2;69.5
53699;BME280;39591;53.952;27.612;2023-03-04T00:58:31;997.1;;;2.2;69.9
53699;BME280;39591;53.952;27.612;2023-03-04T01:03:45;996.9;;;2.2;69.7
53699;BME280;39591;53.952;27.612;2023-03-04T01:08:55;996.8;;;2.2;70.8
53699;BME280;39591;53.952;27.612;2023-03-04T01:13:55;996.7;;;2.1;70.5
53699;BME280;39591;53.952;27.612;2023-03-04T01:18:55;996.6;;;2;70.6
53699;BME280;39591;53.952;27.612;2023-03-04T01:23:21;996.5;;;1.9;71.5
53699;BME280;39591;53.952;27.612;2023-03-04T01:28:33;996.4;;;1.9;71.8
53699;BME280;39591;53.952;27.612;2023-03-04T01:33:55;996.4;;;2;71.9
53699;BME280;39591;53.952;27.612;2023-03-04T01:39:09;996.3;;;1.9;73.4
53699;BME280;39591;53.952;27.612;2023-03-04T01:43:55;996.2;;;1.8;73.8
53699;BME280;39591;53.952;27.612;2023-03-04T01:48:22;996.1;;;1.8;73.2
53699;BME280;39591;53.952;27.612;2023-03-04T01:53:45;996;;;1.7;73.9
53699;BME280;39591;53.952;27.612;2023-03-04T01:59:09;996;;;1.7;75.5
53699;BME280;39591;53.952;27.612;2023-03-04T02:04:09;995.9;;;1.7;74.7
53699;BME280;39591;53.952;27.612;2023-03-04T02:08:55;995.8;;;1.6;74.1
53699;BME280;39591;53.952;27.612;2023-03-04T02:13:21;995.7;;;1.6;73.7
53699;BME280;39591;53.952;27.612;2023-03-04T02:18:43;995.6;;;1.6;73.3
53699;BME280;39591;53.952;27.612;2023-03-04T02:23:57;995.6;;;1.6;73
53699;BME280;39591;53.952;27.612;2023-03-04T02:28:55;995.5;;;1.6;72
53699;BME280;39591;53.952;27.612;2023-03-04T02:34:10;995.4;;;1.6;71.6
53699;BME280;39591;53.952;27.612;2023-03-04T02:38:21;995.4;;;1.7;71.2
53699;BME280;39591;53.952;27.612;2023-03-04T02:43:43;995.4;;;1.8;70.5
53699;BME280;39591;53.952;27.612;2023-03-04T02:48:21;995.2;;;1.8;70.2
53699;BME280;39591;53.952;27.612;2023-03-04T02:53:55;995.1;;;1.8;69.8
53699;BME280;39591;53.952;27.612;2023-03-04T02:59:09;995;;;1.8;69.6
53699;BME280;39591;53.952;27.612;2023-03-04T03:03:21;995;;;1.7;69.4
53699;BME280;39591;53.952;27.612;2023-03-04T03:08:43;994.9;;;1.7;69.3
53699;BME280;39591;53.952;27.612;2023-03-04T03:13:33;994.7;;;1.7;69.7
53699;BME280;39591;53.952;27.612;2023-03-04T03:18:53;994.5;;;1.6;70.5
53699;BME280;39591;53.952;27.612;2023-03-04T03:24:09;994.5;;;1.6;69.7
53699;BME280;39591;53.952;27.612;2023-03-04T03:28:31;994.4;;;1.6;69.5
53699;BME280;39591;53.952;27.612;2023-03-04T03:33:33;994.2;;;1.6;69.7
53699;BME280;39591;53.952;27.612;2023-03-04T03:38:33;994.1;;;1.5;69.7
53699;BME280;39591;53.952;27.612;2023-03-04T03:43:53;994;;;1.5;69.7
53699;BME280;39591;53.952;27.612;2023-03-04T03:49:07;993.9;;;1.5;69.6
53699;BME280;39591;53.952;27.612;2023-03-04T03:53:21;993.9;;;1.5;69.3
53699;BME280;39591;53.952;27.612;2023-03-04T03:58:45;993.7;;;1.6;69
53699;BME280;39591;53.952;27.612;2023-03-04T04:03:33;993.7;;;1.5;68.7
53699;BME280;39591;53.952;27.612;2023-03-04T04:08:55;993.6;;;1.5;69
53699;BME280;39591;53.952;27.612;2023-03-04T04:13:55;993.5;;;1.6;68.4
53699;BME280;39591;53.952;27.612;2023-03-04T04:18:45;993.4;;;1.5;68.3
53699;BME280;39591;53.952;27.612;2023-03-04T04:23:43;993.3;;;1.5;68.4
53699;BME280;39591;53.952;27.612;2023-03-04T04:28:21;993.2;;;1.5;68.2
53699;BME280;39591;53.952;27.612;2023-03-04T04:33:55;993.1;;;1.6;67.8
53699;BME280;39591;53.952;27.612;2023-03-04T04:39:09;992.9;;;1.5;67.7
53699;BME280;39591;53.952;27.612;2023-03-04T04:43:33;992.9;;;1.6;67.6
53699;BME280;39591;53.952;27.612;2023-03-04T04:48:45;992.8;;;1.6;67.3
53699;BME280;39591;53.952;27.612;2023-03-04T04:53:55;992.7;;;1.7;67
53699;BME280;39591;53.952;27.612;2023-03-04T04:59:07;992.6;;;1.7;67.1
53699;BME280;39591;53.952;27.612;2023-03-04T05:04:09;992.6;;;1.6;68
53699;BME280;39591;53.952;27.612;2023-03-04T05:08:21;992.4;;;1.6;68.6
53699;BME280;39591;53.952;27.612;2023-03-04T05:13:33;992.4;;;1.6;68.6
53699;BME280;39591;53.952;27.612;2023-03-04T05:18:21;992.3;;;1.6;68.9
53699;BME280;39591;53.952;27.612;2023-03-04T05:23:55;992.5;;;1.5;70
53699;BME280;39591;53.952;27.612;2023-03-04T05:28:47;992.3;;;1.5;69.2
53699;BME280;39591;53.952;27.612;2023-03-04T05:33:31;992.3;;;1.6;69
53699;BME280;39591;53.952;27.612;2023-03-04T05:38:45;992.4;;;1.6;68.2
53699;BME280;39591;53.952;27.612;2023-03-04T05:43:31;992.3;;;1.6;67.9
53699;BME280;39591;53.952;27.612;2023-03-04T05:48:43;992.3;;;1.6;67.9
53699;BME280;39591;53.952;27.612;2023-03-04T05:53:59;992.2;;;1.7;67.4
53699;BME280;39591;53.952;27.612;2023-03-04T05:58:21;992.1;;;1.7;67.1
53699;BME280;39591;53.952;27.612;2023-03-04T06:03:33;992;;;1.8;66.9
53699;BME280;39591;53.952;27.612;2023-03-04T06:08:22;992;;;2;66.5
53699;BME280;39591;53.952;27.612;2023-03-04T06:13:23;992.1;;;2.1;66.2
53699;BME280;39591;53.952;27.612;2023-03-04T06:19:07;992.1;;;2;65.9
53699;BME280;39591;53.952;27.612;2023-03-04T06:23:43;992;;;2;66.5
53699;BME280;39591;53.952;27.612;2023-03-04T06:28:55;991.9;;;2.1;66.4
53699;BME280;39591;53.952;27.612;2023-03-04T06:33:21;991.9;;;2.1;66.8
53699;BME280;39591;53.952;27.612;2023-03-04T06:39:11;991.8;;;2.2;66.3
53699;BME280;39591;53.952;27.612;2023-03-04T06:44:11;991.8;;;2.3;66.1
53699;BME280;39591;53.952;27.612;2023-03-04T06:48:57;991.8;;;2.4;66
53699;BME280;39591;53.952;27.612;2023-03-04T06:53:45;991.7;;;2.6;66
53699;BME280;39591;53.952;27.612;2023-03-04T06:58:31;991.7;;;2.6;68.1
53699;BME280;39591;53.952;27.612;2023-03-04T07:03:57;991.7;;;2.5;70.2
53699;BME280;39591;53.952;27.612;2023-03-04T07:09:11;991.7;;;2.4;70
53699;BME280;39591;53.952;27.612;2023-03-04T07:13:55;991.6;;;2.3;69.8
53699;BME280;39591;53.952;27.612;2023-03-04T07:18:45;991.7;;;2.4;70.2
53699;BME280;39591;53.952;27.612;2023-03-04T07:24:11;991.7;;;2.4;70.8
53699;BME280;39591;53.952;27.612;2023-03-04T07:28:57;991.8;;;2.3;73.8
53699;BME280;39591;53.952;27.612;2023-03-04T07:34:12;991.8;;;2.2;79.5
53699;BME280;39591;53.952;27.612;2023-03-04T07:38:55;991.8;;;1.9;81.7
53699;BME280;39591;53.952;27.612;2023-03-04T07:43:43;991.9;;;1.8;82.8
53699;BME280;39591;53.952;27.612;2023-03-04T07:48:21;991.9;;;1.8;82.2
53699;BME280;39591;53.952;27.612;2023-03-04T07:53:58;991.8;;;2;81.5
53699;BME280;39591;53.952;27.612;2023-03-04T07:59:11;991.8;;;2.1;78.4
53699;BME280;39591;53.952;27.612;2023-03-04T08:03:57;991.8;;;2.1;77.2
53699;BME280;39591;53.952;27.612;2023-03-04T08:09:11;991.8;;;2.1;75.9
53699;BME280;39591;53.952;27.612;2023-03-04T08:14:09;992;;;2.2;75
53699;BME280;39591;53.952;27.612;2023-03-04T08:18:59;992.3;;;1.8;75
53699;BME280;39591;53.952;27.612;2023-03-04T08:24:11;992.5;;;1.2;79.2
53699;BME280;39591;53.952;27.612;2023-03-04T08:28:57;992.4;;;0.9;80.8
53699;BME280;39591;53.952;27.612;2023-03-04T08:33:21;992.4;;;0.8;81.3
53699;BME280;39591;53.952;27.612;2023-03-04T08:38:21;992.1;;;1.2;80.1
53699;BME280;39591;53.952;27.612;2023-03-04T08:43:43;992;;;1.7;78.3
53699;BME280;39591;53.952;27.612;2023-03-04T08:49:10;991.9;;;2.1;76.4
53699;BME280;39591;53.952;27.612;2023-03-04T08:53:57;991.8;;;2.5;74.6
53699;BME280;39591;53.952;27.612;2023-03-04T08:58:43;991.9;;;2.6;72.3
53699;BME280;39591;53.952;27.612;2023-03-04T09:03:33;991.8;;;2.8;67.7
53699;BME280;39591;53.952;27.612;2023-03-04T09:09:11;991.7;;;3.1;66.1
53699;BME280;39591;53.952;27.612;2023-03-04T09:14:09;991.7;;;3.2;64.8
53699;BME280;39591;53.952;27.612;2023-03-04T09:18:57;991.8;;;3.3;62.8
53699;BME280;39591;53.952;27.612;2023-03-04T09:23:45;991.7;;;3.3;61.1
53699;BME280;39591;53.952;27.612;2023-03-04T09:28:21;991.7;;;3.3;60.2
53699;BME280;39591;53.952;27.612;2023-03-04T09:33:53;991.7;;;3.3;57.8
53699;BME280;39591;53.952;27.612;2023-03-04T09:39:09;991.7;;;3.5;57.4
53699;BME280;39591;53.952;27.612;2023-03-04T09:43:55;991.7;;;3.6;56.9
53699;BME280;39591;53.952;27.612;2023-03-04T09:48:44;991.7;;;3.7;55.7
53699;BME280;39591;53.952;27.612;2023-03-04T09:54:00;991.7;;;3.5;54.1
53699;BME280;39591;53.952;27.612;2023-03-04T09:58:56;991.6;;;3.6;55
53699;BME280;39591;53.952;27.612;2023-03-04T10:04:07;991.5;;;3.6;55.2
53699;BME280;39591;53.952;27.612;2023-03-04T10:08:54;991.4;;;3.7;54
53699;BME280;39591;53.952;27.612;2023-03-04T10:13:45;991.4;;;4;54.3
53699;BME280;39591;53.952;27.612;2023-03-04T10:18:43;991.3;;;4.7;54.8
53699;BME280;39591;53.952;27.612;2023-03-04T10:23:53;991.3;;;5;56.1
53699;BME280;39591;53.952;27.612;2023-03-04T10:29:07;991.2;;;5.3;56
53699;BME280;39591;53.952;27.612;2023-03-04T10:33:45;991.1;;;5.7;57
53699;BME280;39591;53.952;27.612;2023-03-04T10:39:09;991.1;;;5.7;57
53699;BME280;39591;53.952;27.612;2023-03-04T10:43:29;991;;;5.5;56.8
53699;BME280;39591;53.952;27.612;2023-03-04T10:49:08;990.9;;;5.3;57.3
53699;BME280;39591;53.952;27.612;2023-03-04T10:53:27;990.8;;;5.3;57
53699;BME280;39591;53.952;27.612;2023-03-04T10:58:31;990.7;;;5.6;56.5
53699;BME280;39591;53.952;27.612;2023-03-04T11:04:15;990.7;;;5.8;55
53699;BME280;39591;53.952;27.612;2023-03-04T11:08:56;990.7;;;5.9;53.9
53699;BME280;39591;53.952;27.612;2023-03-04T11:14:13;990.7;;;5.8;53.9
53699;BME280;39591;53.952;27.612;2023-03-04T11:19:00;990.8;;;5.2;59.6
53699;BME280;39591;53.952;27.612;2023-03-04T11:23:48;991;;;5;56.9
53699;BME280;39591;53.952;27.612;2023-03-04T11:28:35;991.2;;;4.7;58.2
53699;BME280;39591;53.952;27.612;2023-03-04T11:33:35;991.3;;;4.5;57.8
53699;BME280;39591;53.952;27.612;2023-03-04T11:39:13;991;;;4.6;55
53699;BME280;39591;53.952;27.612;2023-03-04T11:43:57;991;;;4.7;50.4
53699;BME280;39591;53.952;27.612;2023-03-04T11:48:44;990.9;;;4.5;49.5
53699;BME280;39591;53.952;27.612;2023-03-04T11:54:13;991.1;;;4.2;52
53699;BME280;39591;53.952;27.612;2023-03-04T11:58:29;991.2;;;3.8;56.9
53699;BME280;39591;53.952;27.612;2023-03-04T12:04:15;991.1;;;3.9;53.6
53699;BME280;39591;53.952;27.612;2023-03-04T12:09:01;991.2;;;3.8;52.6
53699;BME280;39591;53.952;27.612;2023-03-04T12:13:46;991.3;;;3.5;53.7
53699;BME280;39591;53.952;27.612;2023-03-04T12:19:15;991.5;;;3.2;61.8
53699;BME280;39591;53.952;27.612;2023-03-04T12:23:48;991.7;;;2;79.6
53699;BME280;39591;53.952;27.612;2023-03-04T12:29:09;991.1;;;2;80.5
53699;BME280;39591;53.952;27.612;2023-03-04T12:34:04;991;;;2.5;74.4
53699;BME280;39591;53.952;27.612;2023-03-04T12:38:43;991;;;2.5;69.9
53699;BME280;39591;53.952;27.612;2023-03-04T12:44:11;990.8;;;2.6;65
53699;BME280;39591;53.952;27.612;2023-03-04T12:48:54;990.8;;;2.4;60
53699;BME280;39591;53.952;27.612;2023-03-04T12:54:12;990.8;;;2.2;56.6
53699;BME280;39591;53.952;27.612;2023-03-04T12:58:57;991;;;2;54.2
53699;BME280;39591;53.952;27.612;2023-03-04T13:03:32;991.5;;;1.8;64.1
53699;BME280;39591;53.952;27.612;2023-03-04T13:09:09;992;;;0.8;83
53699;BME280;39591;53.952;27.612;2023-03-04T13:13:43;992;;;0.2;82.5
53699;BME280;39591;53.952;27.612;2023-03-04T13:19:40;991.9;;;-0.3;82.4
53699;BME280;39591;53.952;27.612;2023-03-04T13:24:43;991.7;;;-0.5;82.2
53699;BME280;39591;53.952;27.612;2023-03-04T13:28:55;991.4;;;-0.4;81.8
53699;BME280;39591;53.952;27.612;2023-03-04T13:34:39;991.3;;;0.4;81
53699;BME280;39591;53.952;27.612;2023-03-04T13:38:22;991.2;;;1.2;78.5
53699;BME280;39591;53.952;27.612;2023-03-04T13:44:30;991.2;;;1.4;75.7
53699;BME280;39591;53.952;27.612;2023-03-04T13:49:01;991.2;;;1.5;72
53699;BME280;39591;53.952;27.612;2023-03-04T13:54:13;991.1;;;1.3;69.7
53699;BME280;39591;53.952;27.612;2023-03-04T13:59:27;991;;;1.3;68
53699;BME280;39591;53.952;27.612;2023-03-04T14:03:30;991.3;;;1.3;66
53699;BME280;39591;53.952;27.612;2023-03-04T14:09:11;991.5;;;1.1;64.3
53699;BME280;39591;53.952;27.612;2023-03-04T14:14:09;991.4;;;0.8;63.7
53699;BME280;39591;53.952;27.612;2023-03-04T14:18:56;991.3;;;0.8;63.6
53699;BME280;39591;53.952;27.612;2023-03-04T14:24:10;991.2;;;0.9;61.1
53699;BME280;39591;53.952;27.612;2023-03-04T14:28:21;991.2;;;0.9;59.8
53699;BME280;39591;53.952;27.612;2023-03-04T14:33:57;991.2;;;0.6;59.5
53699;BME280;39591;53.952;27.612;2023-03-04T14:39:11;991.2;;;0.5;59.7
53699;BME280;39591;53.952;27.612;2023-03-04T14:43:31;991.3;;;0.3;60.3
53699;BME280;39591;53.952;27.612;2023-03-04T14:49:10;991.4;;;0.1;60.4
53699;BME280;39591;53.952;27.612;2023-03-04T14:53:22;991.4;;;-0.1;60.6
53699;BME280;39591;53.952;27.612;2023-03-04T14:58:54;991.5;;;-0.2;60.6
53699;BME280;39591;53.952;27.612;2023-03-04T15:04:09;991.5;;;-0.2;62.1
53699;BME280;39591;53.952;27.612;2023-03-04T15:08:55;991.7;;;-0.4;62.1
53699;BME280;39591;53.952;27.612;2023-03-04T15:14:35;991.7;;;-0.6;60.6
53699;BME280;39591;53.952;27.612;2023-03-04T15:18:22;991.7;;;-0.7;59.9
53699;BME280;39591;53.952;27.612;2023-03-04T15:23:55;991.6;;;-0.8;61.9
53699;BME280;39591;53.952;27.612;2023-03-04T15:29:10;991.4;;;-1;63.5
53699;BME280;39591;53.952;27.612;2023-03-04T15:33:21;991.1;;;-1;59.5
53699;BME280;39591;53.952;27.612;2023-03-04T15:38:24;991.2;;;-0.9;56.5
53699;BME280;39591;53.952;27.612;2023-03-04T15:43:21;991.2;;;-0.9;56.3
53699;BME280;39591;53.952;27.612;2023-03-04T15:48:53;991.3;;;-1.1;57.1
53699;BME280;39591;53.952;27.612;2023-03-04T15:54:08;991.4;;;-1.3;58
53699;BME280;39591;53.952;27.612;2023-03-04T15:58:39;991.4;;;-1.4;58.6
53699;BME280;39591;53.952;27.612;2023-03-04T16:04:09;991.4;;;-1.6;58.8
53699;BME280;39591;53.952;27.612;2023-03-04T16:08:31;991.3;;;-1.7;58.9
53699;BME280;39591;53.952;27.612;2023-03-04T16:13:53;991.3;;;-1.7;58.7
53699;BME280;39591;53.952;27.612;2023-03-04T16:19:09;991.3;;;-1.8;58.9
53699;BME280;39591;53.952;27.612;2023-03-04T16:23:32;991.3;;;-1.9;59.1
53699;BME280;39591;53.952;27.612;2023-03-04T16:29:09;991.3;;;-1.9;59.3
53699;BME280;39591;53.952;27.612;2023-03-04T16:33:29;991.3;;;-1.9;59.6
53699;BME280;39591;53.952;27.612;2023-03-04T16:38:54;991.3;;;-2;59.5
53699;BME280;39591;53.952;27.612;2023-03-04T16:44:05;991.4;;;-2;59.6
53699;BME280;39591;53.952;27.612;2023-03-04T16:48:39;991.4;;;-2;59.2
53699;BME280;39591;53.952;27.612;2023-03-04T16:54:12;991.4;;;-2;58.5
53699;BME280;39591;53.952;27.612;2023-03-04T16:58:21;991.4;;;-2;58.1
53699;BME280;39591;53.952;27.612;2023-03-04T17:03:53;991.3;;;-1.9;58.1
53699;BME280;39591;53.952;27.612;2023-03-04T17:09:08;991.3;;;-1.8;57.5
53699;BME280;39591;53.952;27.612;2023-03-04T17:13:39;991.4;;;-1.8;57.2
53699;BME280;39591;53.952;27.612;2023-03-04T17:19:07;991.3;;;-1.8;57.3
53699;BME280;39591;53.952;27.612;2023-03-04T17:23:31;991.3;;;-1.8;57.6
53699;BME280;39591;53.952;27.612;2023-03-04T17:28:51;991.3;;;-1.8;57.6
53699;BME280;39591;53.952;27.612;2023-03-04T17:33:55;991.4;;;-1.7;58
53699;BME280;39591;53.952;27.612;2023-03-04T17:38:21;991.3;;;-1.6;57.9
53699;BME280;39591;53.952;27.612;2023-03-04T17:44:05;991.3;;;-1.5;58.3
53699;BME280;39591;53.952;27.612;2023-03-04T17:48:31;991.3;;;-1.5;58.7
53699;BME280;39591;53.952;27.612;2023-03-04T17:53:53;991.2;;;-1.5;59.1
53699;BME280;39591;53.952;27.612;2023-03-04T17:59:08;991.2;;;-1.6;62.8
53699;BME280;39591;53.952;27.612;2023-03-04T18:03:39;991.1;;;-1.6;62.2
53699;BME280;39591;53.952;27.612;2023-03-04T18:09:07;991.1;;;-1.7;63.1
53699;BME280;39591;53.952;27.612;2023-03-04T18:13:35;991;;;-1.7;61.6
53699;BME280;39591;53.952;27.612;2023-03-04T18:18:54;991;;;-1.6;61.7
53699;BME280;39591;53.952;27.612;2023-03-04T18:24:07;991;;;-1.6;62.6
53699;BME280;39591;53.952;27.612;2023-03-04T18:28:39;991.1;;;-1.7;68.4
53699;BME280;39591;53.952;27.612;2023-03-04T18:34:08;991.1;;;-1.8;74.7
53699;BME280;39591;53.952;27.612;2023-03-04T18:38:33;991.1;;;-1.8;73.9
53699;BME280;39591;53.952;27.612;2023-03-04T18:43:53;991;;;-1.9;73.4
53699;BME280;39591;53.952;27.612;2023-03-04T18:49:07;991.1;;;-1.9;72.5
53699;BME280;39591;53.952;27.612;2023-03-04T18:53:35;991.1;;;-1.9;72.1
53699;BME280;39591;53.952;27.612;2023-03-04T18:59:08;991.1;;;-2;76
53699;BME280;39591;53.952;27.612;2023-03-04T19:03:21;991.1;;;-2.1;75.8
53699;BME280;39591;53.952;27.612;2023-03-04T19:08:52;991;;;-2.1;74.2
53699;BME280;39591;53.952;27.612;2023-03-04T19:14:07;991;;;-2;71.7
53699;BME280;39591;53.952;27.612;2023-03-04T19:18:21;990.9;;;-2;72.4
53699;BME280;39591;53.952;27.612;2023-03-04T19:24:07;990.9;;;-2;72.2
53699;BME280;39591;53.952;27.612;2023-03-04T19:28:21;990.9;;;-2;71.4
53699;BME280;39591;53.952;27.612;2023-03-04T19:33:53;990.9;;;-1.9;72.3
53699;BME280;39591;53.952;27.612;2023-03-04T19:39:07;991;;;-1.9;73.4
53699;BME280;39591;53.952;27.612;2023-03-04T19:43:39;991;;;-1.9;72.5
53699;BME280;39591;53.952;27.612;2023-03-04T19:49:05;991;;;-1.9;70.6
53699;BME280;39591;53.952;27.612;2023-03-04T19:53:31;991.1;;;-1.9;70.7
53699;BME280;39591;53.952;27.612;2023-03-04T19:58:56;991.1;;;-1.8;71.2
53699;BME280;39591;53.952;27.612;2023-03-04T20:04:08;991;;;-1.8;71.5
53699;BME280;39591;53.952;27.612;2023-03-04T20:08:54;991.1;;;-1.8;71.4
53699;BME280;39591;53.952;27.612;2023-03-04T20:14:07;991.1;;;-1.8;72.2
53699;BME280;39591;53.952;27.612;2023-03-04T20:18:33;991.1;;;-1.8;73.5
53699;BME280;39591;53.952;27.612;2023-03-04T20:23:35;991;;;-1.8;73.3
53699;BME280;39591;53.952;27.612;2023-03-04T20:29:07;990.9;;;-1.7;73.3
53699;BME280;39591;53.952;27.612;2023-03-04T20:33:39;990.9;;;-1.7;72.7
53699;BME280;39591;53.952;27.612;2023-03-04T20:39:08;991;;;-1.7;72.7
53699;BME280;39591;53.952;27.612;2023-03-04T20:43:29;991;;;-1.7;74.8
53699;BME280;39591;53.952;27.612;2023-03-04T20:48:51;991.1;;;-1.7;78.5
53699;BME280;39591;53.952;27.612;2023-03-04T20:53:55;991.1;;;-1.7;80.9
53699;BME280;39591;53.952;27.612;2023-03-04T20:58:41;991.1;;;-1.8;81.1
53699;BME280;39591;53.952;27.612;2023-03-04T21:04:09;991.2;;;-1.7;80.6
53699;BME280;39591;53.952;27.612;2023-03-04T21:08:31;991.2;;;-1.7;82.2
53699;BME280;39591;53.952;27.612;2023-03-04T21:13:56;991.2;;;-1.7;81.2
53699;BME280;39591;53.952;27.612;2023-03-04T21:19:12;991.2;;;-1.6;82.8
53699;BME280;39591;53.952;27.612;2023-03-04T21:23:41;991.3;;;-1.6;86.6
53699;BME280;39591;53.952;27.612;2023-03-04T21:29:11;991.3;;;-1.5;81.4
53699;BME280;39591;53.952;27.612;2023-03-04T21:33:32;991.3;;;-1.5;80.3
53699;BME280;39591;53.952;27.612;2023-03-04T21:38:55;991.3;;;-1.5;80.8
53699;BME280;39591;53.952;27.612;2023-03-04T21:44:11;991.4;;;-1.5;81.6
53699;BME280;39591;53.952;27.612;2023-03-04T21:48:22;991.5;;;-1.5;81.2
53699;BME280;39591;53.952;27.612;2023-03-04T21:54:12;991.5;;;-1.4;80.4
53699;BME280;39591;53.952;27.612;2023-03-04T21:58:33;991.5;;;-1.4;78.6
53699;BME280;39591;53.952;27.612;2023-03-04T22:03:57;991.6;;;-1.3;77.1
53699;BME280;39591;53.952;27.612;2023-03-04T22:09:09;991.7;;;-1.2;77.7
53699;BME280;39591;53.952;27.612;2023-03-04T22:13:43;991.7;;;-1.1;75.8
53699;BME280;39591;53.952;27.612;2023-03-04T22:19:11;991.7;;;-1.1;75.1
53699;BME280;39591;53.952;27.612;2023-03-04T22:23:31;991.8;;;-1;74.4
53699;BME280;39591;53.952;27.612;2023-03-04T22:28:56;991.8;;;-0.9;73.8
53699;BME280;39591;53.952;27.612;2023-03-04T22:33:21;991.8;;;-0.9;73.4
53699;BME280;39591;53.952;27.612;2023-03-04T22:38:43;991.8;;;-0.8;73
53699;BME280;39591;53.952;27.612;2023-03-04T22:44:11;991.9;;;-0.8;72.7
53699;BME280;39591;53.952;27.612;2023-03-04T22:48:33;992;;;-0.7;71.9
53699;BME280;39591;53.952;27.612;2023-03-04T22:53:45;992.1;;;-0.6;72.3
53699;BME280;39591;53.952;27.612;2023-03-04T22:58:33;992.1;;;-0.6;72.7
53699;BME280;39591;53.952;27.612;2023-03-04T23:03:36;992.2;;;-0.6;71
53699;BME280;39591;53.952;27.612;2023-03-04T23:09:09;992.4;;;-0.6;70.4
53699;BME280;39591;53.952;27.612;2023-03-04T23:13:21;992.4;;;-0.6;71.6
53699;BME280;39591;53.952;27.612;2023-03-04T23:18:53;992.5;;;-0.7;73.2
53699;BME280;39591;53.952;27.612;2023-03-04T23:23:21;992.6;;;-0.7;73.5
53699;BME280;39591;53.952;27.612;2023-03-04T23:28:21;992.6;;;-0.7;75.5
53699;BME280;39591;53.952;27.612;2023-03-04T23:34:07;992.6;;;-0.7;74.2
53699;BME280;39591;53.952;27.612;2023-03-04T23:38:21;992.7;;;-0.7;78.5
53699;BME280;39591;53.952;27.612;2023-03-04T23:43:56;992.7;;;-0.7;75.6
53699;BME280;39591;53.952;27.612;2023-03-04T23:48:45;992.7;;;-0.6;72.4
53699;BME280;39591;53.952;27.612;2023-03-04T23:53:31;992.8;;;-0.6;69.9
53699;BME280;39591;53.952;27.612;2023-03-04T23:59:09;992.9;;;-0.6;71.1
